»·PEaware :: N8DL KOAK-KSNA

N8DL :: KOAK-KSNA

FLIGHT INFORMATION

Flight Status: Arrived
Operator: Privately registered:
United States
More flights under this callsign
Pilot: Dean L. (8400)
Aircraft: DASSAULT AVIATION FALCON 50
(FA50)
More flights by this aircraft type
Origin: KOAK Metro Oakland Intl
United States
Destination: KSNA John Wayne-Orange Co
United States
More flights between these airports :: More routes between these airports
Route: +COAST9 MCKEY TILLT TILLT2
File this flight plan on PilotEdge
Remarks:
Altitude:
(Current/Filed)
41,000ft
Speed:
(Current/Filed)
450kts
Departed: 04-Dec-18 02:47 PM
Arrived: 04-Dec-18 04:01 PM
Distance/Time
Traveled:
322nm/1:14
Distance/Time
To Go:
Arrived

Flight Plot

Page will automatically refresh every two minutes.

Flight plan parsing failed; only flown route is shown


Map Options




Map Legend


Flown Route
Filed Route
Departure Airport
Arrival Airport
Navaid (VOR, NDB)
Fix

Horizontal Profiles

Position Reports

Time Latitude Longitude Heading Altitude Ground
Speed
04-Dec-18 14:25 37.733967 -122.215607 56 9ft 0kts
04-Dec-18 14:26 37.733967 -122.215607 56 9ft 0kts
04-Dec-18 14:27 37.733967 -122.215607 56 9ft 0kts
04-Dec-18 14:28 37.733967 -122.215607 56 9ft 0kts
04-Dec-18 14:29 37.733967 -122.215607 56 9ft 0kts
04-Dec-18 14:30 37.733967 -122.215607 56 9ft 0kts
04-Dec-18 14:31 37.733967 -122.215607 56 9ft 0kts
04-Dec-18 14:32 37.733967 -122.215607 56 9ft 0kts
04-Dec-18 14:33 37.733967 -122.215607 56 9ft 0kts
04-Dec-18 14:34 37.733967 -122.215607 56 9ft 0kts
04-Dec-18 14:35 37.733967 -122.215606 56 9ft 0kts
04-Dec-18 14:36 37.732963 -122.216239 181 9ft 9kts
04-Dec-18 14:37 37.729635 -122.214142 133 9ft 17kts
04-Dec-18 14:38 37.727333 -122.209046 111 9ft 16kts
04-Dec-18 14:39 37.725660 -122.204288 128 9ft 10kts
04-Dec-18 14:40 37.725466 -122.204020 135 9ft 0kts
04-Dec-18 14:41 37.725466 -122.204020 135 9ft 0kts
04-Dec-18 14:42 37.725466 -122.204020 135 9ft 0kts
04-Dec-18 14:43 37.725466 -122.204020 135 9ft 0kts
04-Dec-18 14:44 37.725364 -122.203928 160 9ft 2kts
04-Dec-18 14:45 37.724838 -122.204998 290 9ft 8kts
04-Dec-18 14:46 37.737943 -122.247721 290 1764ft 205kts
04-Dec-18 14:47 37.758110 -122.320388 288 6408ft 202kts
04-Dec-18 14:48 37.779386 -122.387232 251 9542ft 195kts
04-Dec-18 14:49 37.738119 -122.416652 194 12469ft 175kts
04-Dec-18 14:50 37.688852 -122.432732 190 14893ft 197kts
04-Dec-18 14:51 37.632083 -122.435249 188 16931ft 207kts
04-Dec-18 14:52 37.575663 -122.446026 191 18920ft 201kts
04-Dec-18 14:53 37.520337 -122.457544 191 20377ft 217kts
04-Dec-18 14:54 37.441437 -122.474015 190 21606ft 357kts
04-Dec-18 14:55 37.331539 -122.496614 190 24744ft 416kts
04-Dec-18 14:56 37.216948 -122.520149 192 28758ft 418kts
04-Dec-18 14:57 37.102171 -122.543708 193 31350ft 419kts
04-Dec-18 14:58 36.986340 -122.567413 193 32831ft 424kts
04-Dec-18 14:59 36.867410 -122.549221 173 33855ft 442kts
04-Dec-18 15:00 36.747114 -122.516003 174 34438ft 443kts
04-Dec-18 15:01 36.626464 -122.484760 176 34608ft 443kts
04-Dec-18 15:02 36.502929 -122.452936 176 34653ft 455kts
04-Dec-18 15:03 36.384320 -122.402681 143 36165ft 480kts
04-Dec-18 15:04 36.305846 -122.265039 132 37815ft 484kts
04-Dec-18 15:05 36.220605 -122.137673 133 39295ft 479kts
04-Dec-18 15:06 36.134329 -122.012493 133 40621ft 477kts
04-Dec-18 15:07 36.046807 -121.886161 133 40989ft 491kts
04-Dec-18 15:08 35.956772 -121.756603 134 40997ft 499kts
04-Dec-18 15:09 35.866440 -121.627063 134 41001ft 493kts
04-Dec-18 15:10 35.800823 -121.533262 136 41012ft 485kts
04-Dec-18 15:11 35.713385 -121.408688 132 40981ft 476kts
04-Dec-18 15:12 35.627283 -121.286445 134 40988ft 472kts
04-Dec-18 15:13 35.540459 -121.163726 135 40986ft 478kts
04-Dec-18 15:14 35.461322 -121.032702 117 41056ft 486kts
04-Dec-18 15:15 35.375366 -120.912495 144 41050ft 474kts
04-Dec-18 15:16 35.274455 -120.807017 142 40988ft 477kts
04-Dec-18 15:17 35.174891 -120.700115 142 40989ft 477kts
04-Dec-18 15:18 35.079706 -120.598141 142 40978ft 477kts
04-Dec-18 15:19 34.976857 -120.507420 149 41048ft 472kts
04-Dec-18 15:20 34.870649 -120.420012 149 40984ft 473kts
04-Dec-18 15:21 34.765913 -120.335425 149 40989ft 473kts
04-Dec-18 15:22 34.654334 -120.245721 150 40996ft 473kts
04-Dec-18 15:23 34.544332 -120.157738 150 40991ft 473kts
04-Dec-18 15:24 34.436510 -120.071802 151 39297ft 468kts
04-Dec-18 15:25 34.330231 -119.987275 153 36848ft 449kts
04-Dec-18 15:26 34.227884 -119.906147 156 34454ft 426kts
04-Dec-18 15:27 34.131002 -119.829654 157 32350ft 410kts
04-Dec-18 15:28 34.048259 -119.731950 131 30258ft 436kts
04-Dec-18 15:29 33.986167 -119.607760 130 28030ft 429kts
04-Dec-18 15:30 33.924769 -119.485743 128 25734ft 422kts
04-Dec-18 15:31 33.865831 -119.367466 127 23437ft 400kts
04-Dec-18 15:32 33.810706 -119.255300 127 21337ft 377kts
04-Dec-18 15:33 33.758645 -119.150033 127 19529ft 356kts
04-Dec-18 15:34 33.708921 -119.049803 126 17734ft 344kts
04-Dec-18 15:35 33.660633 -118.952789 126 15958ft 333kts
04-Dec-18 15:36 33.614649 -118.860661 125 14766ft 312kts
04-Dec-18 15:37 33.572895 -118.771609 116 13582ft 305kts
04-Dec-18 15:39 33.555002 -118.671476 105 12035ft 315kts
04-Dec-18 15:40 33.538314 -118.568034 104 10317ft 314kts
04-Dec-18 15:41 33.524536 -118.481794 102 8549ft 224kts
04-Dec-18 15:42 33.520210 -118.409048 96 7076ft 194kts
04-Dec-18 15:43 33.518486 -118.347809 97 6426ft 187kts
04-Dec-18 15:44 33.534354 -118.282945 74 5873ft 214kts
04-Dec-18 15:45 33.555178 -118.216063 73 5314ft 259kts
04-Dec-18 15:46 33.583647 -118.149201 61 5000ft 217kts
04-Dec-18 15:47 33.614766 -118.093145 61 5016ft 215kts
04-Dec-18 15:48 33.648336 -118.032769 61 5017ft 220kts
04-Dec-18 15:49 33.675059 -117.982983 77 4939ft 133kts
04-Dec-18 15:50 33.707859 -117.937609 31 5055ft 219kts
04-Dec-18 15:51 33.762377 -117.907153 27 5010ft 215kts
04-Dec-18 15:52 33.818131 -117.877822 27 4307ft 213kts
04-Dec-18 15:53 33.864659 -117.854412 27 4016ft 175kts
04-Dec-18 15:54 33.892843 -117.809051 90 4050ft 196kts
04-Dec-18 15:55 33.876486 -117.772229 179 3980ft 138kts
04-Dec-18 15:56 33.834364 -117.771934 171 3118ft 157kts
04-Dec-18 15:57 33.796110 -117.794191 204 2582ft 164kts
04-Dec-18 15:58 33.757694 -117.817143 205 1721ft 144kts
04-Dec-18 15:58 33.726801 -117.836227 207 1056ft 139kts
04-Dec-18 15:59 33.693325 -117.857444 207 341ft 147kts
04-Dec-18 16:00 33.666609 -117.875054 227 59ft 35kts
04-Dec-18 16:02 33.665818 -117.876350 341 59ft 7kts
04-Dec-18 16:02 33.668525 -117.874967 9 59ft 17kts
04-Dec-18 16:03 33.672709 -117.872269 25 59ft 11kts

Navigation Log

Ident Type
Flight plan parsing failed, navigation log unavailable